Time;durP1;ratioP1;P1;durP2;ratioP2;P2;SDS_P1;SDS_P2;PMS_P1;PMS_P2;Temp;Humidity;BMP_temperature;BMP_pressure;BME280_temperature;BME280_humidity;BME280_pressure;Samples;Min_cycle;Max_cycle;Signal;HPM_P1;HPM_P2
2021/08/24 00:02:04;;;;;;;6.60;1.45;;;;;;;14.00;52.44;102809.81;5052321;28;20481;-69
2021/08/24 00:04:29;;;;;;;2.85;1.17;;;;;;;13.98;52.49;102810.75;5054944;28;20040;-69
2021/08/24 00:06:55;;;;;;;4.18;1.20;;;;;;;13.96;52.95;102820.44;5070279;28;20036;-71
2021/08/24 00:09:20;;;;;;;4.47;1.45;;;;;;;14.00;52.74;102815.09;5070359;28;20397;-69
2021/08/24 00:11:46;;;;;;;4.70;1.77;;;;;;;13.98;52.91;102811.63;5060570;28;20037;-69
2021/08/24 00:14:12;;;;;;;2.20;1.13;;;;;;;14.04;52.83;102823.78;5054529;28;20029;-69
2021/08/24 00:16:41;;;;;;;4.68;1.40;;;;;;;13.96;53.21;102815.19;5054059;28;20032;-70
2021/08/24 00:19:08;;;;;;;2.67;1.33;;;;;;;14.01;53.09;102811.56;5068571;28;20157;-69
2021/08/24 00:21:34;;;;;;;4.20;1.75;;;;;;;14.04;52.99;102813.25;5059972;28;20029;-70
2021/08/24 00:24:00;;;;;;;3.67;1.60;;;;;;;13.99;53.58;102812.50;5055724;28;20032;-69
2021/08/24 00:26:25;;;;;;;4.85;1.17;;;;;;;14.06;54.05;102819.34;5067727;28;20455;-68
2021/08/24 00:28:50;;;;;;;6.88;1.73;;;;;;;14.16;53.58;102810.31;5054298;28;20043;-68
2021/08/24 00:31:16;;;;;;;6.28;1.20;;;;;;;14.15;54.08;102809.47;5054907;28;20036;-69
2021/08/24 00:33:41;;;;;;;2.97;1.23;;;;;;;14.26;53.74;102806.56;5070907;28;20053;-69
2021/08/24 00:36:12;;;;;;;2.75;1.48;;;;;;;14.29;53.93;102805.63;5067476;28;20037;-68
2021/08/24 00:38:38;;;;;;;9.57;1.33;;;;;;;14.33;53.82;102804.66;5056276;28;20634;-68
2021/08/24 00:41:04;;;;;;;7.07;1.08;;;;;;;14.18;54.64;102805.88;5044627;28;20495;-69
2021/08/24 00:43:32;;;;;;;2.25;1.52;;;;;;;14.34;53.94;102809.00;5053125;28;20060;-68
2021/08/24 00:46:13;;;;;;;1.30;1.02;;;;;;;14.21;54.72;102811.09;5068549;28;20107;-69
2021/08/24 00:48:41;;;;;;;3.88;0.90;;;;;;;14.35;53.74;102808.09;5052378;28;20024;-69
2021/08/24 00:51:07;;;;;;;3.17;1.55;;;;;;;14.28;53.71;102810.03;5057629;28;20641;-68
2021/08/24 00:53:36;;;;;;;3.88;1.40;;;;;;;14.27;53.88;102813.53;5060880;28;20036;-69
2021/08/24 00:56:04;;;;;;;1.95;1.05;;;;;;;14.32;53.73;102810.78;5062520;28;20431;-69
2021/08/24 00:58:30;;;;;;;5.30;1.25;;;;;;;14.21;53.52;102808.47;5057000;28;20032;-68
2021/08/24 01:00:56;;;;;;;8.07;1.25;;;;;;;14.13;53.87;102815.66;5052961;28;20122;-69
2021/08/24 01:03:26;;;;;;;4.70;2.08;;;;;;;14.07;53.86;102814.03;5064753;28;20068;-68
2021/08/24 01:05:59;;;;;;;5.10;1.50;;;;;;;14.05;54.07;102818.47;5058003;28;20553;-69
2021/08/24 01:08:48;;;;;;;5.55;1.40;;;;;;;13.92;54.27;102817.91;5056381;28;20090;-68
2021/08/24 01:11:34;;;;;;;8.00;1.38;;;;;;;13.93;54.35;102819.63;5064063;28;20025;-69
2021/08/24 01:14:09;;;;;;;4.88;1.20;;;;;;;13.92;54.32;102827.56;5058869;28;20112;-69
2021/08/24 01:16:42;;;;;;;5.07;1.13;;;;;;;13.92;54.52;102832.81;5057977;28;20090;-69
2021/08/24 01:19:50;;;;;;;5.68;1.20;;;;;;;13.94;54.46;102825.72;5057262;28;20101;-69
2021/08/24 01:22:15;;;;;;;7.00;1.50;;;;;;;13.87;54.75;102825.00;5073691;28;20036;-69
2021/08/24 01:24:55;;;;;;;8.23;1.50;;;;;;;13.85;54.94;102821.59;5054534;28;20032;-69
2021/08/24 01:28:00;;;;;;;3.60;1.25;;;;;;;13.99;54.51;102817.78;5038956;28;20108;-69
2021/08/24 01:30:44;;;;;;;2.85;1.48;;;;;;;13.99;54.44;102815.16;5055884;28;20037;-69
2021/08/24 01:33:24;;;;;;;2.28;0.77;;;;;;;13.98;54.53;102816.03;5062785;28;20514;-69
2021/08/24 01:36:18;;;;;;;7.05;1.35;;;;;;;13.96;54.43;102820.44;5055702;28;20047;-69
2021/08/24 01:38:48;;;;;;;2.42;1.10;;;;;;;14.00;54.22;102820.34;5055802;28;20043;-68
2021/08/24 01:41:20;;;;;;;2.10;0.85;;;;;;;13.99;54.30;102818.63;5056415;28;20036;-69
2021/08/24 01:43:48;;;;;;;4.53;1.63;;;;;;;14.04;54.55;102821.16;5063388;28;20035;-70
2021/08/24 01:46:44;;;;;;;4.13;1.05;;;;;;;14.00;54.76;102819.50;5054250;28;20033;-69
2021/08/24 01:49:13;;;;;;;3.13;0.85;;;;;;;14.05;54.75;102817.59;5073426;28;20085;-69
2021/08/24 01:51:43;;;;;;;2.25;0.80;;;;;;;14.13;54.43;102818.28;5055995;28;20033;-69
2021/08/24 01:54:21;;;;;;;3.97;0.88;;;;;;;14.10;54.43;102816.59;5058711;28;20021;-69
2021/08/24 01:56:49;;;;;;;4.60;1.15;;;;;;;13.76;55.98;102827.03;5056624;28;20127;-69
2021/08/24 01:59:30;;;;;;;4.65;1.40;;;;;;;14.13;54.75;102815.66;5060131;28;20566;-69
2021/08/24 02:02:10;;;;;;;4.80;0.95;;;;;;;14.12;54.73;102809.53;5056643;28;20048;-69
2021/08/24 02:04:47;;;;;;;3.55;1.27;;;;;;;14.09;54.66;102811.38;5072124;28;20071;-70
2021/08/24 02:07:15;;;;;;;7.88;1.92;;;;;;;13.97;55.22;102809.91;5054617;28;20076;-68
2021/08/24 02:09:45;;;;;;;3.03;1.00;;;;;;;14.14;54.63;102814.75;5060516;28;20033;-68
2021/08/24 02:12:12;;;;;;;6.32;1.20;;;;;;;14.02;55.29;102812.44;5069726;28;20228;-69
2021/08/24 02:14:40;;;;;;;3.95;1.35;;;;;;;14.10;55.02;102810.50;5057050;28;20043;-70
2021/08/24 02:17:09;;;;;;;3.38;1.10;;;;;;;14.00;55.38;102811.59;5070212;28;20025;-70
2021/08/24 02:19:44;;;;;;;9.63;1.50;;;;;;;14.17;55.25;102806.81;5055663;28;20063;-68
2021/08/24 02:22:28;;;;;;;6.32;1.52;;;;;;;14.16;54.92;102810.31;5054666;28;20123;-68
2021/08/24 02:25:25;;;;;;;4.10;0.90;;;;;;;14.08;55.29;102813.16;5056253;28;20041;-68
2021/08/24 02:28:00;;;;;;;2.35;0.98;;;;;;;14.04;55.35;102811.47;5026361;28;20050;-68
2021/08/24 02:30:28;;;;;;;6.95;1.10;;;;;;;14.02;55.42;102812.44;5055065;28;20036;-69
2021/08/24 02:32:55;;;;;;;7.80;1.38;;;;;;;14.05;55.55;102801.81;5060381;28;20116;-69
2021/08/24 02:35:27;;;;;;;9.48;2.03;;;;;;;14.06;55.15;102809.69;5062104;28;20032;-69
2021/08/24 02:38:07;;;;;;;7.25;1.92;;;;;;;14.05;55.22;102807.94;5055809;28;20025;-69
2021/08/24 02:40:55;;;;;;;8.95;1.58;;;;;;;13.99;55.14;102809.88;5055910;28;20035;-69
2021/08/24 02:43:31;;;;;;;3.05;1.95;;;;;;;13.90;55.38;102808.34;5068216;28;20122;-69
2021/08/24 02:46:02;;;;;;;4.07;0.98;;;;;;;13.87;55.36;102809.25;5053219;28;20203;-68
2021/08/24 02:48:30;;;;;;;8.15;1.17;;;;;;;13.90;54.80;102809.19;5055274;28;20555;-68
2021/08/24 02:50:56;;;;;;;5.35;1.55;;;;;;;13.89;54.99;102817.97;5060308;28;20397;-69
2021/08/24 02:53:22;;;;;;;5.45;2.08;;;;;;;13.84;55.20;102814.59;5062581;28;20028;-68
2021/08/24 02:55:49;;;;;;;3.90;1.08;;;;;;;13.80;55.24;102812.91;5061428;28;20742;-69
2021/08/24 02:58:15;;;;;;;4.78;1.50;;;;;;;13.74;55.19;102813.06;5039370;28;20109;-69
2021/08/24 03:00:40;;;;;;;4.18;1.05;;;;;;;13.68;55.06;102818.47;5057533;28;20126;-69
2021/08/24 03:03:06;;;;;;;4.60;0.70;;;;;;;13.67;54.98;102816.72;5054005;28;20069;-69
2021/08/24 03:05:31;;;;;;;5.05;0.95;;;;;;;13.65;55.15;102827.28;5056046;28;20115;-69
2021/08/24 03:07:57;;;;;;;4.15;1.13;;;;;;;13.60;55.01;102826.50;5057272;28;20112;-69
2021/08/24 03:10:25;;;;;;;5.13;1.30;;;;;;;13.56;55.09;102821.31;5060172;28;20069;-68
2021/08/24 03:13:22;;;;;;;4.22;0.88;;;;;;;13.59;55.19;102829.19;5053275;28;20028;-68
2021/08/24 03:16:09;;;;;;;2.28;0.95;;;;;;;13.57;55.08;102828.34;5056354;28;20486;-69
2021/08/24 03:18:41;;;;;;;5.05;0.95;;;;;;;13.48;55.11;102827.59;5049383;28;20037;-69
2021/08/24 03:21:13;;;;;;;7.93;1.48;;;;;;;13.50;55.12;102825.81;5055521;28;20089;-68
2021/08/24 03:23:42;;;;;;;2.47;0.80;;;;;;;13.51;55.04;102824.91;5045763;28;20082;-69
2021/08/24 03:26:10;;;;;;;1.92;0.82;;;;;;;13.49;54.98;102826.69;5054600;28;20082;-69
2021/08/24 03:28:40;;;;;;;4.07;0.80;;;;;;;13.47;54.97;102831.16;5069314;28;20033;-69
2021/08/24 03:31:06;;;;;;;1.95;1.27;;;;;;;13.48;54.85;102827.59;5054832;28;20043;-69
2021/08/24 03:33:32;;;;;;;3.20;1.02;;;;;;;13.62;54.37;102829.09;5052668;28;20032;-68
2021/08/24 03:35:57;;;;;;;3.97;1.73;;;;;;;13.59;54.18;102816.91;5055513;28;20387;-68
2021/08/24 03:38:23;;;;;;;3.92;1.42;;;;;;;13.38;54.26;102820.81;5054946;28;20063;-69
2021/08/24 03:40:48;;;;;;;6.40;1.48;;;;;;;13.33;54.55;102825.28;5056098;28;20121;-69
2021/08/24 03:43:14;;;;;;;2.25;0.90;;;;;;;13.24;54.81;102834.22;5059975;28;20150;-69
2021/08/24 03:45:40;;;;;;;5.93;1.00;;;;;;;13.19;54.88;102824.72;5072337;28;20029;-69
2021/08/24 03:48:05;;;;;;;4.55;1.65;;;;;;;13.15;54.77;102830.94;5052020;28;20035;-69
2021/08/24 03:50:32;;;;;;;6.53;1.50;;;;;;;13.18;54.63;102828.22;5053290;28;20811;-69
2021/08/24 03:52:57;;;;;;;4.32;0.85;;;;;;;13.23;54.73;102823.78;5052034;28;20033;-69
2021/08/24 03:55:23;;;;;;;3.75;1.30;;;;;;;13.18;54.61;102825.59;5056108;28;20081;-69
2021/08/24 03:57:49;;;;;;;8.77;2.05;;;;;;;13.13;54.83;102830.09;5052583;28;20601;-68
2021/08/24 04:00:16;;;;;;;5.03;1.30;;;;;;;13.07;55.00;102834.56;5070975;28;20031;-69
2021/08/24 04:02:41;;;;;;;2.70;1.60;;;;;;;13.06;54.98;102832.84;5056206;28;20033;-69
2021/08/24 04:05:07;;;;;;;2.80;1.13;;;;;;;13.18;55.02;102822.97;5068443;28;20037;-69
2021/08/24 04:07:33;;;;;;;8.10;0.98;;;;;;;13.24;54.68;102828.13;5060190;28;20083;-69
2021/08/24 04:09:58;;;;;;;4.88;0.80;;;;;;;13.26;54.80;102835.06;5053236;28;20434;-69
2021/08/24 04:12:25;;;;;;;2.65;1.02;;;;;;;13.27;54.55;102835.91;5068300;28;20401;-69
2021/08/24 04:14:51;;;;;;;6.30;1.60;;;;;;;13.24;54.93;102838.63;5055185;28;20028;-68
2021/08/24 04:17:16;;;;;;;4.18;0.75;;;;;;;13.21;54.54;102829.03;5056729;28;20070;-69
2021/08/24 04:19:42;;;;;;;2.10;0.88;;;;;;;13.22;54.66;102840.41;5066456;28;20044;-69
2021/08/24 04:22:09;;;;;;;5.72;0.63;;;;;;;13.23;54.69;102842.16;5052271;28;20029;-69
2021/08/24 04:24:36;;;;;;;5.25;1.02;;;;;;;13.24;54.62;102851.75;5054542;28;20037;-69
2021/08/24 04:27:02;;;;;;;4.63;1.83;;;;;;;13.23;54.33;102852.66;5060431;28;20091;-69
2021/08/24 04:29:27;;;;;;;2.65;1.10;;;;;;;13.22;54.60;102862.28;5055543;28;20040;-69
2021/08/24 04:31:55;;;;;;;1.98;0.95;;;;;;;13.19;54.79;102859.72;5057439;28;20033;-69
2021/08/24 04:34:21;;;;;;;1.95;0.68;;;;;;;13.23;54.49;102864.03;5056407;28;20021;-69
2021/08/24 04:36:46;;;;;;;2.22;1.05;;;;;;;13.15;54.69;102858.03;5050163;28;20381;-69
2021/08/24 04:39:12;;;;;;;3.50;1.08;;;;;;;13.10;54.46;102860.75;5072253;28;20407;-68
2021/08/24 04:41:37;;;;;;;3.72;1.30;;;;;;;13.20;54.62;102865.81;5071831;28;20033;-69
2021/08/24 04:44:03;;;;;;;2.28;1.55;;;;;;;13.20;54.49;102855.31;5058252;28;20037;-69
2021/08/24 04:46:28;;;;;;;2.67;1.40;;;;;;;13.21;54.55;102860.56;5056584;28;20112;-69
2021/08/24 04:48:54;;;;;;;3.08;0.95;;;;;;;13.29;54.55;102858.66;5057162;28;20025;-69
2021/08/24 04:51:20;;;;;;;2.47;1.40;;;;;;;13.31;54.18;102861.22;5058974;28;21115;-69
2021/08/24 04:53:46;;;;;;;2.53;0.88;;;;;;;13.28;54.53;102877.06;5070394;28;20054;-69
2021/08/24 04:56:11;;;;;;;3.22;1.25;;;;;;;13.38;54.34;102862.81;5057701;28;20127;-69
2021/08/24 04:58:37;;;;;;;2.33;1.00;;;;;;;13.42;53.99;102864.50;5071402;28;20033;-69
2021/08/24 05:01:02;;;;;;;2.70;1.00;;;;;;;13.47;53.77;102873.19;5059768;28;20120;-69
2021/08/24 05:03:28;;;;;;;4.20;1.40;;;;;;;13.41;54.02;102873.28;5056466;28;20033;-69
2021/08/24 05:05:53;;;;;;;8.18;1.70;;;;;;;13.58;53.77;102872.09;5071129;28;20347;-69
2021/08/24 05:08:19;;;;;;;3.65;1.75;;;;;;;13.63;53.71;102884.25;5057007;28;20028;-68
2021/08/24 05:10:44;;;;;;;3.60;1.10;;;;;;;13.78;53.53;102877.78;5058030;28;20029;-68
2021/08/24 05:13:10;;;;;;;1.83;1.13;;;;;;;13.83;53.43;102883.84;5057884;28;20032;-69
2021/08/24 05:15:35;;;;;;;1.83;0.98;;;;;;;13.90;53.29;102888.06;5072549;28;20027;-70
2021/08/24 05:18:01;;;;;;;5.30;1.27;;;;;;;14.03;53.03;102885.13;5060410;28;20032;-68
2021/08/24 05:20:27;;;;;;;11.57;1.90;;;;;;;14.17;52.96;102887.47;5053105;28;20044;-69
2021/08/24 05:22:53;;;;;;;6.03;1.70;;;;;;;15.03;51.99;102888.81;5057331;28;20029;-69
2021/08/24 05:25:21;;;;;;;3.53;1.42;;;;;;;16.30;50.29;102886.88;5056073;28;20029;-69
2021/08/24 05:27:47;;;;;;;2.85;1.20;;;;;;;17.68;46.00;102891.75;5071163;28;20083;-68
2021/08/24 05:30:19;;;;;;;2.85;1.67;;;;;;;18.98;43.00;102887.38;5046259;28;20459;-68
2021/08/24 05:32:45;;;;;;;3.75;1.20;;;;;;;19.60;40.08;102894.28;5069605;28;20041;-69
2021/08/24 05:35:10;;;;;;;6.20;1.10;;;;;;;20.29;38.24;102884.84;5057626;28;20116;-69
2021/08/24 05:37:36;;;;;;;5.72;1.23;;;;;;;20.83;36.90;102888.25;5074608;28;20564;-70
2021/08/24 05:40:02;;;;;;;1.75;0.98;;;;;;;21.62;35.67;102889.44;5053455;28;20041;-70
2021/08/24 05:42:28;;;;;;;6.40;1.10;;;;;;;22.41;34.90;102886.69;5055100;28;20406;-69
2021/08/24 05:44:53;;;;;;;3.80;1.00;;;;;;;23.31;32.93;102885.69;5069243;28;20475;-69
2021/08/24 05:47:19;;;;;;;2.20;1.10;;;;;;;24.00;31.70;102888.41;5054699;28;20058;-69
2021/08/24 05:49:44;;;;;;;2.13;0.90;;;;;;;24.69;30.11;102889.13;5057306;28;20564;-69
2021/08/24 05:52:09;;;;;;;3.35;0.93;;;;;;;25.33;30.02;102894.47;5046075;28;20600;-69
2021/08/24 05:54:39;;;;;;;2.47;1.00;;;;;;;25.43;28.53;102903.53;5060441;28;20025;-69
2021/08/24 05:57:05;;;;;;;1.90;1.02;;;;;;;25.61;29.47;102900.53;5062415;28;20051;-69
2021/08/24 05:59:34;;;;;;;3.42;1.40;;;;;;;25.78;28.34;102897.47;5056444;28;20032;-69
2021/08/24 06:02:00;;;;;;;5.65;1.38;;;;;;;25.91;27.93;102891.19;5063043;28;20040;-69
2021/08/24 06:04:26;;;;;;;3.90;1.17;;;;;;;26.06;28.51;102898.09;5069109;28;20060;-70
2021/08/24 06:06:52;;;;;;;2.33;1.25;;;;;;;26.51;27.75;102895.56;5056505;28;20486;-70
2021/08/24 06:09:18;;;;;;;1.50;0.93;;;;;;;26.70;27.60;102889.69;5059304;28;20478;-69
2021/08/24 06:11:50;;;;;;;3.80;1.30;;;;;;;27.33;26.62;102892.75;5054163;28;20107;-70
2021/08/24 06:14:17;;;;;;;2.60;1.42;;;;;;;26.29;27.32;102891.03;5053955;28;20049;-69
2021/08/24 06:16:43;;;;;;;5.38;1.20;;;;;;;24.76;30.23;102887.72;5047720;28;20510;-69
2021/08/24 06:19:09;;;;;;;2.70;1.40;;;;;;;24.65;29.71;102891.16;5056895;28;20665;-69
2021/08/24 06:21:36;;;;;;;4.03;1.30;;;;;;;24.84;28.62;102895.25;5062891;28;20024;-68
2021/08/24 06:24:03;;;;;;;6.47;1.45;;;;;;;24.47;30.21;102891.56;5059579;28;20966;-69
2021/08/24 06:26:29;;;;;;;8.48;1.42;;;;;;;23.63;31.01;102893.44;5057570;28;20056;-69
2021/08/24 06:28:54;;;;;;;5.95;0.90;;;;;;;23.87;30.78;102896.38;5055387;28;20461;-69
2021/08/24 06:31:23;;;;;;;6.60;1.35;;;;;;;23.99;29.92;102897.38;5071325;28;20035;-69
2021/08/24 06:33:50;;;;;;;3.80;1.58;;;;;;;25.08;29.12;102891.81;5052245;28;20471;-69
2021/08/24 06:36:16;;;;;;;2.33;1.08;;;;;;;26.49;26.25;102892.13;5053650;28;20615;-70
2021/08/24 06:38:43;;;;;;;1.88;1.00;;;;;;;27.77;24.64;102890.97;5056262;28;20056;-69
2021/08/24 06:41:09;;;;;;;3.38;0.75;;;;;;;27.84;24.31;102891.31;5045373;28;20115;-70
2021/08/24 06:43:35;;;;;;;3.40;0.82;;;;;;;27.87;22.68;102891.91;5070988;28;20033;-69
2021/08/24 06:46:01;;;;;;;3.00;0.93;;;;;;;27.90;23.17;102894.34;5056547;28;20032;-69
2021/08/24 06:48:26;;;;;;;4.70;0.77;;;;;;;28.23;22.26;102897.88;5053648;28;20049;-70
2021/08/24 06:50:52;;;;;;;5.10;0.90;;;;;;;29.29;21.59;102895.97;5055948;28;20036;-70
2021/08/24 06:53:18;;;;;;;1.88;0.70;;;;;;;29.03;22.30;102903.63;5070764;28;20047;-70
2021/08/24 06:55:44;;;;;;;3.08;1.13;;;;;;;29.01;21.35;102898.38;5059719;28;20037;-70
2021/08/24 06:58:11;;;;;;;3.38;1.58;;;;;;;28.72;21.77;102904.50;5044295;28;20050;-70
2021/08/24 07:00:37;;;;;;;2.65;0.90;;;;;;;28.47;22.82;102899.47;5053659;28;20418;-70
2021/08/24 07:03:05;;;;;;;1.55;0.77;;;;;;;29.25;22.30;102902.59;5057642;28;20033;-69
2021/08/24 07:05:33;;;;;;;1.40;0.80;;;;;;;29.32;21.64;102909.13;5070720;28;20128;-70
2021/08/24 07:07:58;;;;;;;6.22;1.08;;;;;;;30.45;20.01;102910.53;5038867;28;20044;-70
2021/08/24 07:10:25;;;;;;;2.20;0.82;;;;;;;29.47;20.80;102905.06;5055155;28;20021;-70
2021/08/24 07:12:51;;;;;;;5.82;3.38;;;;;;;29.32;22.08;102907.28;5055880;28;20047;-70
2021/08/24 07:15:21;;;;;;;5.95;1.33;;;;;;;29.71;21.07;102911.97;5057978;28;20041;-69
2021/08/24 07:17:49;;;;;;;2.88;1.00;;;;;;;29.36;21.60;102906.03;5069067;28;20124;-69
2021/08/24 07:20:18;;;;;;;1.55;0.70;;;;;;;29.74;21.78;102915.19;5056343;28;20127;-70
2021/08/24 07:22:44;;;;;;;7.20;0.98;;;;;;;30.00;20.96;102925.44;5070062;28;20059;-71
2021/08/24 07:25:14;;;;;;;2.42;0.82;;;;;;;29.95;21.26;102923.19;5052680;28;20066;-70
2021/08/24 07:27:40;;;;;;;5.60;1.83;;;;;;;29.49;21.32;102930.03;5054548;28;20029;-70
2021/08/24 07:30:07;;;;;;;3.67;1.17;;;;;;;30.50;20.53;102925.28;5051167;28;20044;-72
2021/08/24 07:32:33;;;;;;;1.75;0.80;;;;;;;31.51;19.31;102930.06;5069323;28;20024;-71
2021/08/24 07:34:59;;;;;;;1.40;0.88;;;;;;;31.41;19.50;102925.53;5049102;28;20037;-70
2021/08/24 07:37:24;;;;;;;5.68;0.90;;;;;;;32.31;18.36;102928.31;5069617;28;20031;-71
2021/08/24 07:39:51;;;;;;;4.78;1.20;;;;;;;31.52;19.47;102932.63;5055988;28;20089;-69
2021/08/24 07:42:17;;;;;;;3.47;0.88;;;;;;;31.30;18.87;102933.00;5069724;28;20037;-69
2021/08/24 07:44:42;;;;;;;2.05;0.77;;;;;;;30.69;19.02;102940.63;5051246;28;20441;-69
2021/08/24 07:47:09;;;;;;;4.20;1.23;;;;;;;30.41;19.78;102941.50;5053286;28;20636;-69
2021/08/24 07:49:35;;;;;;;3.38;0.93;;;;;;;30.44;19.98;102946.59;5059866;28;20037;-70
2021/08/24 07:52:03;;;;;;;4.55;0.70;;;;;;;31.40;18.75;102941.91;5051704;28;20032;-70
2021/08/24 07:54:29;;;;;;;4.07;0.47;;;;;;;31.98;18.48;102952.34;5065339;28;20025;-70
2021/08/24 07:56:54;;;;;;;2.13;0.85;;;;;;;32.30;17.44;102953.66;5051513;28;20043;-69
2021/08/24 07:59:20;;;;;;;1.27;0.45;;;;;;;31.93;17.85;102948.41;5055388;28;20031;-69
2021/08/24 08:01:45;;;;;;;2.10;0.55;;;;;;;31.32;17.92;102947.22;5053259;28;20074;-69
2021/08/24 08:04:11;;;;;;;1.98;0.57;;;;;;;30.64;18.18;102961.78;5053320;28;20036;-69
2021/08/24 08:06:39;;;;;;;1.42;0.60;;;;;;;30.22;18.63;102961.22;5059005;28;20021;-69
2021/08/24 08:09:05;;;;;;;5.00;0.52;;;;;;;30.13;19.08;102958.41;5052788;28;20036;-69
2021/08/24 08:11:34;;;;;;;2.38;0.80;;;;;;;30.42;19.18;102964.75;5048604;28;20446;-70
2021/08/24 08:14:00;;;;;;;2.22;0.52;;;;;;;30.31;18.02;102965.75;5052209;28;20036;-70
2021/08/24 08:16:26;;;;;;;1.63;0.52;;;;;;;31.24;17.34;102960.63;5056898;28;20092;-69
2021/08/24 08:18:51;;;;;;;1.40;0.52;;;;;;;30.84;17.79;102962.56;5050233;28;20375;-70
2021/08/24 08:21:19;;;;;;;1.52;0.52;;;;;;;30.64;17.94;102964.47;5039920;28;20032;-70
2021/08/24 08:23:46;;;;;;;3.83;0.50;;;;;;;30.11;20.08;102967.59;5052323;28;20055;-70
2021/08/24 08:26:12;;;;;;;1.85;0.50;;;;;;;30.57;18.26;102960.66;5054411;28;20479;-70
2021/08/24 08:28:37;;;;;;;3.22;1.20;;;;;;;31.39;17.20;102954.56;5054534;28;20071;-70
2021/08/24 08:31:04;;;;;;;2.17;0.38;;;;;;;32.51;16.08;102966.88;5065378;28;20124;-69
2021/08/24 08:33:32;;;;;;;2.58;0.85;;;;;;;30.61;17.07;102969.31;5053625;28;20040;-69
2021/08/24 08:35:58;;;;;;;5.35;0.57;;;;;;;29.94;17.47;102967.28;5058142;28;20071;-72
2021/08/24 08:38:24;;;;;;;2.45;0.68;;;;;;;29.68;18.23;102971.50;5050061;28;20033;-69
2021/08/24 08:41:28;;;;;;;2.03;0.38;;;;;;;30.41;17.31;102969.31;5056275;28;20036;-69
2021/08/24 08:43:59;;;;;;;1.88;0.57;;;;;;;30.31;18.10;102963.94;5069547;28;20060;-69
2021/08/24 08:46:53;;;;;;;1.23;0.30;;;;;;;30.18;19.05;102964.22;5068375;28;20040;-69
2021/08/24 08:50:03;;;;;;;1.33;0.40;;;;;;;30.10;16.27;102968.59;5053931;28;20036;-69
2021/08/24 08:53:16;;;;;;;2.67;0.40;;;;;;;29.22;16.86;102962.13;5028767;28;20037;-69
2021/08/24 08:55:49;;;;;;;1.08;0.60;;;;;;;28.98;18.14;102963.25;5013658;28;20048;-69
2021/08/24 08:58:33;;;;;;;1.20;0.40;;;;;;;28.42;17.92;102968.94;5052568;28;20044;-71
2021/08/24 09:01:29;;;;;;;0.90;0.40;;;;;;;27.19;20.62;102968.19;5050864;28;20024;-68
2021/08/24 09:04:21;;;;;;;1.40;0.30;;;;;;;26.89;20.06;102972.22;5052500;28;20040;-70
2021/08/24 09:06:49;;;;;;;1.23;0.40;;;;;;;26.22;21.94;102976.41;5059901;28;20123;-69
2021/08/24 09:09:16;;;;;;;4.25;0.50;;;;;;;25.08;23.11;102977.44;5050675;28;20029;-69
2021/08/24 09:11:47;;;;;;;1.85;0.30;;;;;;;25.30;22.23;102974.97;5054539;28;20028;-69
2021/08/24 09:14:22;;;;;;;2.45;0.40;;;;;;;25.50;21.99;102975.38;5058675;28;20047;-69
2021/08/24 09:17:00;;;;;;;1.75;0.45;;;;;;;25.00;22.64;102976.16;5061723;28;20048;-70
2021/08/24 09:19:53;;;;;;;1.00;0.30;;;;;;;25.02;22.82;102976.91;5068879;28;20460;-69
2021/08/24 09:22:19;;;;;;;2.78;0.73;;;;;;;24.82;22.22;102972.03;5053490;28;20050;-69
2021/08/24 09:24:47;;;;;;;1.13;0.57;;;;;;;24.96;22.39;102969.25;5056120;28;20021;-69
2021/08/24 09:27:37;;;;;;;1.52;0.45;;;;;;;25.31;22.46;102975.81;5056328;28;20067;-70
2021/08/24 09:30:04;;;;;;;1.03;0.37;;;;;;;26.04;21.92;102980.38;5058911;28;20045;-69
2021/08/24 09:32:30;;;;;;;2.33;0.40;;;;;;;26.04;21.33;102983.06;5053957;28;20029;-69
2021/08/24 09:35:10;;;;;;;1.40;0.50;;;;;;;26.70;20.77;102970.97;5056855;28;20021;-69
2021/08/24 09:37:39;;;;;;;1.50;0.40;;;;;;;26.58;20.57;102977.31;5055450;28;20111;-69
2021/08/24 09:40:07;;;;;;;1.50;0.57;;;;;;;25.89;21.54;102985.06;5054479;28;20159;-69
2021/08/24 09:42:40;;;;;;;1.27;0.43;;;;;;;25.71;21.27;102984.59;5052854;28;20032;-70
2021/08/24 09:45:18;;;;;;;1.42;0.55;;;;;;;25.26;22.45;102987.72;5068213;28;20044;-69
2021/08/24 09:47:51;;;;;;;1.50;0.80;;;;;;;25.88;21.54;102986.03;5074329;28;20399;-70
2021/08/24 09:50:20;;;;;;;1.45;0.32;;;;;;;25.58;21.15;102971.22;5043171;28;20029;-69
2021/08/24 09:52:49;;;;;;;1.75;0.52;;;;;;;26.13;22.00;102977.06;5070322;28;20036;-68
2021/08/24 09:55:21;;;;;;;1.05;0.35;;;;;;;26.68;21.58;102967.56;5073561;28;20468;-70
2021/08/24 09:57:51;;;;;;;1.13;0.32;;;;;;;25.93;21.37;102964.25;5057126;28;20658;-69
2021/08/24 10:00:39;;;;;;;3.37;1.30;;;;;;;25.21;22.30;102964.91;5070717;28;20476;-69
2021/08/24 10:03:39;;;;;;;1.67;0.52;;;;;;;25.46;20.99;102961.34;5054794;28;20036;-69
2021/08/24 10:06:19;;;;;;;0.98;0.20;;;;;;;25.94;22.09;102960.63;5055819;28;20153;-70
2021/08/24 10:08:44;;;;;;;1.92;0.55;;;;;;;25.61;19.65;102964.78;5053045;28;20120;-70
2021/08/24 10:11:31;;;;;;;1.50;0.68;;;;;;;26.19;20.66;102960.53;5062499;28;20028;-70
2021/08/24 10:14:20;;;;;;;1.58;0.50;;;;;;;25.74;20.18;102954.88;5055928;28;23435;-70
2021/08/24 10:16:50;;;;;;;;;;;;;;;25.83;20.40;102951.53;5055408;28;20396;-69
2021/08/24 10:19:27;;;;;;;5.32;0.95;;;;;;;26.00;19.29;102946.75;5054560;28;19916;-69
2021/08/24 10:22:00;;;;;;;2.70;0.80;;;;;;;25.32;19.78;102943.59;5054262;28;20033;-69
2021/08/24 10:24:31;;;;;;;1.10;0.40;;;;;;;25.10;21.46;102940.72;5056251;28;20037;-69
2021/08/24 10:27:01;;;;;;;1.75;0.73;;;;;;;25.39;21.14;102939.50;5069756;28;20020;-70
2021/08/24 10:29:34;;;;;;;3.25;0.50;;;;;;;25.33;22.08;102934.63;5054048;28;20391;-69
2021/08/24 10:32:03;;;;;;;2.08;0.50;;;;;;;25.35;20.30;102930.00;5054424;28;20044;-69
2021/08/24 10:34:37;;;;;;;2.30;0.50;;;;;;;25.98;21.18;102929.97;5053959;28;20024;-69
2021/08/24 10:37:24;;;;;;;2.10;0.40;;;;;;;26.32;21.09;102935.50;5068478;28;20044;-69
2021/08/24 10:40:09;;;;;;;2.00;0.70;;;;;;;26.08;19.88;102929.16;5056798;28;20029;-69
2021/08/24 10:42:38;;;;;;;1.52;0.55;;;;;;;25.62;20.10;102935.22;5057467;28;20116;-69
2021/08/24 10:45:32;;;;;;;2.05;0.68;;;;;;;26.10;19.39;102929.06;5055537;28;20064;-70
2021/08/24 10:48:15;;;;;;;1.15;0.50;;;;;;;25.73;19.43;102936.25;5049361;28;20160;-69
2021/08/24 10:51:00;;;;;;;2.15;0.52;;;;;;;25.60;20.79;102920.25;5054236;28;20492;-68
2021/08/24 10:54:05;;;;;;;3.00;0.50;;;;;;;25.74;19.89;102929.94;5070601;28;20634;-70
2021/08/24 10:56:41;;;;;;;1.63;0.52;;;;;;;25.76;20.50;102928.00;5019814;28;20128;-69
2021/08/24 10:59:29;;;;;;;4.88;0.60;;;;;;;25.32;21.71;102932.88;5066851;28;20032;-70
2021/08/24 11:02:29;;;;;;;1.33;0.50;;;;;;;25.22;21.06;102932.69;5050433;28;20086;-69
2021/08/24 11:05:13;;;;;;;3.45;0.75;;;;;;;25.41;19.83;102932.22;5028686;28;20044;-69
2021/08/24 11:07:46;;;;;;;1.70;0.82;;;;;;;25.36;22.54;102925.50;5069279;28;20029;-70
2021/08/24 11:10:30;;;;;;;1.88;0.73;;;;;;;25.34;22.11;102924.75;5053479;28;20140;-69
2021/08/24 11:13:09;;;;;;;2.92;0.70;;;;;;;25.53;20.78;102924.31;5054250;28;20544;-68
2021/08/24 11:15:38;;;;;;;1.85;0.60;;;;;;;25.63;20.44;102936.91;5053136;28;20032;-68
2021/08/24 11:18:30;;;;;;;1.60;0.57;;;;;;;25.62;19.93;102926.31;5054213;28;20041;-69
2021/08/24 11:21:21;;;;;;;2.10;0.77;;;;;;;25.66;21.15;102942.06;5059282;28;20041;-69
2021/08/24 11:24:00;;;;;;;1.88;0.70;;;;;;;25.43;20.06;102935.66;5050484;28;20039;-70
2021/08/24 11:27:02;;;;;;;5.35;0.98;;;;;;;25.52;20.07;102927.97;5053294;28;20545;-69
2021/08/24 11:30:03;;;;;;;4.25;0.70;;;;;;;26.12;20.37;102927.13;5069443;28;20028;-69
2021/08/24 11:32:39;;;;;;;1.80;0.55;;;;;;;26.47;21.71;102931.66;5046540;28;20136;-70
2021/08/24 11:35:14;;;;;;;1.17;0.55;;;;;;;26.06;18.62;102932.94;5068599;28;20038;-69
2021/08/24 11:37:49;;;;;;;2.15;0.70;;;;;;;25.78;19.42;102940.31;5052633;28;20116;-70
2021/08/24 11:40:27;;;;;;;3.30;0.70;;;;;;;26.01;19.84;102932.41;5051953;28;20040;-68
2021/08/24 11:42:57;;;;;;;1.95;0.50;;;;;;;25.93;21.65;102929.44;5052331;28;20478;-69
2021/08/24 11:45:35;;;;;;;2.45;0.68;;;;;;;26.04;20.25;102934.84;5055081;28;20033;-69